sensor_id;sensor_type;location;lat;lon;timestamp;P1;durP1;ratioP1;P2;durP2;ratioP2
58468;SDS011;44257;44.804;10.220;2023-04-24T00:00:14;2.95;;;1.92;;
58468;SDS011;44257;44.804;10.220;2023-04-24T00:02:41;4.15;;;1.80;;
58468;SDS011;44257;44.804;10.220;2023-04-24T00:05:10;2.58;;;1.40;;
58468;SDS011;44257;44.804;10.220;2023-04-24T00:07:35;3.13;;;1.40;;
58468;SDS011;44257;44.804;10.220;2023-04-24T00:10:01;3.90;;;1.42;;
58468;SDS011;44257;44.804;10.220;2023-04-24T00:12:27;5.50;;;1.67;;
58468;SDS011;44257;44.804;10.220;2023-04-24T00:14:54;4.30;;;1.50;;
58468;SDS011;44257;44.804;10.220;2023-04-24T00:17:20;9.05;;;2.10;;
58468;SDS011;44257;44.804;10.220;2023-04-24T00:19:47;4.72;;;1.92;;
58468;SDS011;44257;44.804;10.220;2023-04-24T00:22:13;3.95;;;1.60;;
58468;SDS011;44257;44.804;10.220;2023-04-24T00:24:40;7.13;;;1.77;;
58468;SDS011;44257;44.804;10.220;2023-04-24T00:27:05;4.25;;;1.90;;
58468;SDS011;44257;44.804;10.220;2023-04-24T00:29:31;4.75;;;1.80;;
58468;SDS011;44257;44.804;10.220;2023-04-24T00:31:57;4.00;;;1.90;;
58468;SDS011;44257;44.804;10.220;2023-04-24T00:34:23;5.93;;;1.98;;
58468;SDS011;44257;44.804;10.220;2023-04-24T00:36:49;5.65;;;2.30;;
58468;SDS011;44257;44.804;10.220;2023-04-24T00:39:20;6.43;;;2.58;;
58468;SDS011;44257;44.804;10.220;2023-04-24T00:41:46;5.28;;;2.80;;
58468;SDS011;44257;44.804;10.220;2023-04-24T00:44:13;6.68;;;2.80;;
58468;SDS011;44257;44.804;10.220;2023-04-24T00:46:40;5.07;;;2.90;;
58468;SDS011;44257;44.804;10.220;2023-04-24T00:49:06;5.20;;;2.55;;
58468;SDS011;44257;44.804;10.220;2023-04-24T00:51:32;5.95;;;3.10;;
58468;SDS011;44257;44.804;10.220;2023-04-24T00:53:58;6.20;;;2.55;;
58468;SDS011;44257;44.804;10.220;2023-04-24T00:56:25;5.03;;;2.70;;
58468;SDS011;44257;44.804;10.220;2023-04-24T00:58:51;9.68;;;2.70;;
58468;SDS011;44257;44.804;10.220;2023-04-24T01:01:20;4.50;;;2.78;;
58468;SDS011;44257;44.804;10.220;2023-04-24T01:03:47;8.45;;;2.83;;
58468;SDS011;44257;44.804;10.220;2023-04-24T01:06:15;5.35;;;2.83;;
58468;SDS011;44257;44.804;10.220;2023-04-24T01:08:42;5.95;;;3.10;;
58468;SDS011;44257;44.804;10.220;2023-04-24T01:11:08;5.32;;;2.50;;
58468;SDS011;44257;44.804;10.220;2023-04-24T01:13:34;4.90;;;3.25;;
58468;SDS011;44257;44.804;10.220;2023-04-24T01:16:02;5.55;;;3.40;;
58468;SDS011;44257;44.804;10.220;2023-04-24T01:18:27;4.70;;;2.50;;
58468;SDS011;44257;44.804;10.220;2023-04-24T01:20:57;5.78;;;2.58;;
58468;SDS011;44257;44.804;10.220;2023-04-24T01:23:24;5.07;;;2.80;;
58468;SDS011;44257;44.804;10.220;2023-04-24T01:25:50;7.45;;;2.75;;
58468;SDS011;44257;44.804;10.220;2023-04-24T01:28:17;3.95;;;2.17;;
58468;SDS011;44257;44.804;10.220;2023-04-24T01:30:43;4.00;;;1.95;;
58468;SDS011;44257;44.804;10.220;2023-04-24T01:33:09;4.22;;;1.77;;
58468;SDS011;44257;44.804;10.220;2023-04-24T01:35:36;5.38;;;1.88;;
58468;SDS011;44257;44.804;10.220;2023-04-24T01:38:02;4.18;;;1.70;;
58468;SDS011;44257;44.804;10.220;2023-04-24T01:40:28;4.03;;;1.73;;
58468;SDS011;44257;44.804;10.220;2023-04-24T01:42:57;3.58;;;1.48;;
58468;SDS011;44257;44.804;10.220;2023-04-24T01:45:23;4.10;;;1.85;;
58468;SDS011;44257;44.804;10.220;2023-04-24T01:47:49;5.38;;;2.00;;
58468;SDS011;44257;44.804;10.220;2023-04-24T01:50:16;3.53;;;1.50;;
58468;SDS011;44257;44.804;10.220;2023-04-24T01:52:43;3.70;;;1.90;;
58468;SDS011;44257;44.804;10.220;2023-04-24T01:55:09;6.90;;;2.20;;
58468;SDS011;44257;44.804;10.220;2023-04-24T01:57:36;6.28;;;2.50;;
58468;SDS011;44257;44.804;10.220;2023-04-24T02:00:03;5.32;;;3.40;;
58468;SDS011;44257;44.804;10.220;2023-04-24T02:02:41;4.57;;;3.30;;
58468;SDS011;44257;44.804;10.220;2023-04-24T02:05:08;6.22;;;3.45;;
58468;SDS011;44257;44.804;10.220;2023-04-24T02:07:35;7.13;;;4.07;;
58468;SDS011;44257;44.804;10.220;2023-04-24T02:10:01;10.65;;;4.18;;
58468;SDS011;44257;44.804;10.220;2023-04-24T02:12:29;6.88;;;4.25;;
58468;SDS011;44257;44.804;10.220;2023-04-24T02:14:55;6.35;;;4.15;;
58468;SDS011;44257;44.804;10.220;2023-04-24T02:17:21;6.93;;;3.95;;
58468;SDS011;44257;44.804;10.220;2023-04-24T02:19:48;7.95;;;4.22;;
58468;SDS011;44257;44.804;10.220;2023-04-24T02:22:15;6.68;;;3.95;;
58468;SDS011;44257;44.804;10.220;2023-04-24T02:24:41;5.43;;;4.00;;
58468;SDS011;44257;44.804;10.220;2023-04-24T02:30:54;6.90;;;4.47;;
58468;SDS011;44257;44.804;10.220;2023-04-24T02:33:21;8.18;;;6.13;;
58468;SDS011;44257;44.804;10.220;2023-04-24T02:35:47;9.07;;;5.45;;
58468;SDS011;44257;44.804;10.220;2023-04-24T02:38:13;8.45;;;5.85;;
58468;SDS011;44257;44.804;10.220;2023-04-24T02:40:38;8.70;;;5.57;;
58468;SDS011;44257;44.804;10.220;2023-04-24T02:43:04;9.85;;;5.88;;
58468;SDS011;44257;44.804;10.220;2023-04-24T02:45:30;15.82;;;10.40;;
58468;SDS011;44257;44.804;10.220;2023-04-24T02:47:56;11.27;;;7.90;;
58468;SDS011;44257;44.804;10.220;2023-04-24T02:50:22;14.07;;;7.90;;
58468;SDS011;44257;44.804;10.220;2023-04-24T02:52:47;12.80;;;8.30;;
58468;SDS011;44257;44.804;10.220;2023-04-24T02:55:13;9.05;;;6.63;;
58468;SDS011;44257;44.804;10.220;2023-04-24T02:57:39;12.48;;;7.68;;
58468;SDS011;44257;44.804;10.220;2023-04-24T03:00:05;22.50;;;12.23;;
58468;SDS011;44257;44.804;10.220;2023-04-24T03:02:32;29.25;;;17.77;;
58468;SDS011;44257;44.804;10.220;2023-04-24T03:04:59;19.05;;;10.88;;
58468;SDS011;44257;44.804;10.220;2023-04-24T03:07:25;23.25;;;15.38;;
58468;SDS011;44257;44.804;10.220;2023-04-24T03:09:50;8.35;;;5.97;;
58468;SDS011;44257;44.804;10.220;2023-04-24T03:12:16;11.63;;;6.05;;
58468;SDS011;44257;44.804;10.220;2023-04-24T03:14:43;12.50;;;6.75;;
58468;SDS011;44257;44.804;10.220;2023-04-24T03:17:09;9.82;;;7.30;;
58468;SDS011;44257;44.804;10.220;2023-04-24T03:19:36;10.45;;;6.05;;
58468;SDS011;44257;44.804;10.220;2023-04-24T03:22:07;9.18;;;5.85;;
58468;SDS011;44257;44.804;10.220;2023-04-24T03:24:35;10.43;;;6.60;;
58468;SDS011;44257;44.804;10.220;2023-04-24T03:27:01;8.82;;;5.90;;
58468;SDS011;44257;44.804;10.220;2023-04-24T03:29:49;11.40;;;6.80;;
58468;SDS011;44257;44.804;10.220;2023-04-24T03:32:23;10.15;;;6.68;;
58468;SDS011;44257;44.804;10.220;2023-04-24T03:34:50;9.00;;;6.68;;
58468;SDS011;44257;44.804;10.220;2023-04-24T03:37:18;10.98;;;6.93;;
58468;SDS011;44257;44.804;10.220;2023-04-24T03:39:52;15.88;;;10.73;;
58468;SDS011;44257;44.804;10.220;2023-04-24T03:42:22;24.52;;;15.57;;
58468;SDS011;44257;44.804;10.220;2023-04-24T03:44:51;25.23;;;15.63;;
58468;SDS011;44257;44.804;10.220;2023-04-24T03:47:21;18.38;;;12.10;;
58468;SDS011;44257;44.804;10.220;2023-04-24T03:49:47;26.77;;;17.38;;
58468;SDS011;44257;44.804;10.220;2023-04-24T03:52:13;14.82;;;10.70;;
58468;SDS011;44257;44.804;10.220;2023-04-24T03:54:39;12.68;;;8.93;;
58468;SDS011;44257;44.804;10.220;2023-04-24T03:57:05;12.52;;;8.57;;
58468;SDS011;44257;44.804;10.220;2023-04-24T03:59:33;10.88;;;8.10;;
58468;SDS011;44257;44.804;10.220;2023-04-24T04:02:18;11.55;;;7.90;;
58468;SDS011;44257;44.804;10.220;2023-04-24T04:04:44;12.38;;;8.63;;
58468;SDS011;44257;44.804;10.220;2023-04-24T04:07:09;13.32;;;9.40;;
58468;SDS011;44257;44.804;10.220;2023-04-24T04:09:36;11.88;;;8.75;;
58468;SDS011;44257;44.804;10.220;2023-04-24T04:12:02;15.68;;;11.15;;
58468;SDS011;44257;44.804;10.220;2023-04-24T04:14:28;14.90;;;10.27;;
58468;SDS011;44257;44.804;10.220;2023-04-24T04:16:54;11.65;;;7.57;;
58468;SDS011;44257;44.804;10.220;2023-04-24T04:19:20;11.27;;;7.53;;
58468;SDS011;44257;44.804;10.220;2023-04-24T04:21:46;10.45;;;7.32;;
58468;SDS011;44257;44.804;10.220;2023-04-24T04:24:40;13.73;;;9.65;;
58468;SDS011;44257;44.804;10.220;2023-04-24T04:27:07;13.20;;;9.68;;
58468;SDS011;44257;44.804;10.220;2023-04-24T04:29:41;12.63;;;8.00;;
58468;SDS011;44257;44.804;10.220;2023-04-24T04:32:09;11.90;;;7.95;;
58468;SDS011;44257;44.804;10.220;2023-04-24T04:34:35;11.95;;;8.10;;
58468;SDS011;44257;44.804;10.220;2023-04-24T04:37:03;10.73;;;7.88;;
58468;SDS011;44257;44.804;10.220;2023-04-24T04:39:50;10.88;;;7.65;;
58468;SDS011;44257;44.804;10.220;2023-04-24T04:44:49;10.77;;;7.53;;
58468;SDS011;44257;44.804;10.220;2023-04-24T04:47:19;12.63;;;9.02;;
58468;SDS011;44257;44.804;10.220;2023-04-24T04:49:50;15.27;;;8.27;;
58468;SDS011;44257;44.804;10.220;2023-04-24T04:52:23;13.95;;;8.95;;
58468;SDS011;44257;44.804;10.220;2023-04-24T04:54:59;12.63;;;8.85;;
58468;SDS011;44257;44.804;10.220;2023-04-24T04:57:38;13.27;;;8.65;;
58468;SDS011;44257;44.804;10.220;2023-04-24T05:00:05;13.77;;;10.07;;
58468;SDS011;44257;44.804;10.220;2023-04-24T05:02:41;11.88;;;9.05;;
58468;SDS011;44257;44.804;10.220;2023-04-24T05:05:07;15.68;;;9.63;;
58468;SDS011;44257;44.804;10.220;2023-04-24T05:07:33;14.43;;;10.02;;
58468;SDS011;44257;44.804;10.220;2023-04-24T05:10:00;14.10;;;9.98;;
58468;SDS011;44257;44.804;10.220;2023-04-24T05:12:25;16.58;;;11.45;;
58468;SDS011;44257;44.804;10.220;2023-04-24T05:14:52;15.45;;;10.73;;
58468;SDS011;44257;44.804;10.220;2023-04-24T05:17:18;20.08;;;13.90;;
58468;SDS011;44257;44.804;10.220;2023-04-24T05:19:44;17.13;;;11.27;;
58468;SDS011;44257;44.804;10.220;2023-04-24T05:22:10;19.35;;;12.23;;
58468;SDS011;44257;44.804;10.220;2023-04-24T05:24:45;16.38;;;11.23;;
58468;SDS011;44257;44.804;10.220;2023-04-24T05:27:33;16.45;;;11.07;;
58468;SDS011;44257;44.804;10.220;2023-04-24T05:30:00;18.90;;;12.52;;
58468;SDS011;44257;44.804;10.220;2023-04-24T05:32:26;18.00;;;12.48;;
58468;SDS011;44257;44.804;10.220;2023-04-24T05:34:53;18.10;;;12.30;;
58468;SDS011;44257;44.804;10.220;2023-04-24T05:37:19;18.10;;;12.93;;
58468;SDS011;44257;44.804;10.220;2023-04-24T05:39:45;20.30;;;13.70;;
58468;SDS011;44257;44.804;10.220;2023-04-24T05:42:12;22.92;;;13.50;;
58468;SDS011;44257;44.804;10.220;2023-04-24T05:44:38;20.05;;;13.00;;
58468;SDS011;44257;44.804;10.220;2023-04-24T05:47:03;19.45;;;13.10;;
58468;SDS011;44257;44.804;10.220;2023-04-24T05:49:29;20.27;;;12.82;;
58468;SDS011;44257;44.804;10.220;2023-04-24T05:51:56;18.33;;;13.18;;
58468;SDS011;44257;44.804;10.220;2023-04-24T05:54:22;17.63;;;11.90;;
58468;SDS011;44257;44.804;10.220;2023-04-24T05:56:48;17.05;;;12.13;;
58468;SDS011;44257;44.804;10.220;2023-04-24T05:59:23;14.98;;;11.40;;
58468;SDS011;44257;44.804;10.220;2023-04-24T06:01:50;18.45;;;12.07;;
58468;SDS011;44257;44.804;10.220;2023-04-24T06:04:19;15.75;;;10.63;;
58468;SDS011;44257;44.804;10.220;2023-04-24T06:06:44;15.75;;;10.25;;
58468;SDS011;44257;44.804;10.220;2023-04-24T06:09:11;15.00;;;10.95;;
58468;SDS011;44257;44.804;10.220;2023-04-24T06:11:38;14.85;;;10.23;;
58468;SDS011;44257;44.804;10.220;2023-04-24T06:14:06;15.23;;;8.90;;
58468;SDS011;44257;44.804;10.220;2023-04-24T06:16:57;14.02;;;8.98;;
58468;SDS011;44257;44.804;10.220;2023-04-24T06:19:36;13.25;;;9.10;;
58468;SDS011;44257;44.804;10.220;2023-04-24T06:22:02;11.35;;;8.55;;
58468;SDS011;44257;44.804;10.220;2023-04-24T06:24:28;12.05;;;9.00;;
58468;SDS011;44257;44.804;10.220;2023-04-24T06:26:54;12.27;;;8.93;;
58468;SDS011;44257;44.804;10.220;2023-04-24T06:29:20;11.75;;;8.85;;
58468;SDS011;44257;44.804;10.220;2023-04-24T06:31:45;12.70;;;8.30;;
58468;SDS011;44257;44.804;10.220;2023-04-24T06:34:11;9.98;;;7.43;;
58468;SDS011;44257;44.804;10.220;2023-04-24T06:36:37;13.13;;;8.90;;
58468;SDS011;44257;44.804;10.220;2023-04-24T06:39:03;14.50;;;8.70;;
58468;SDS011;44257;44.804;10.220;2023-04-24T06:41:29;10.52;;;8.10;;
58468;SDS011;44257;44.804;10.220;2023-04-24T06:43:55;11.75;;;8.02;;
58468;SDS011;44257;44.804;10.220;2023-04-24T06:46:21;12.00;;;8.02;;
58468;SDS011;44257;44.804;10.220;2023-04-24T06:48:49;11.98;;;8.00;;
58468;SDS011;44257;44.804;10.220;2023-04-24T06:51:15;9.68;;;6.75;;
58468;SDS011;44257;44.804;10.220;2023-04-24T06:53:43;11.93;;;7.40;;
58468;SDS011;44257;44.804;10.220;2023-04-24T06:56:09;11.02;;;7.90;;
58468;SDS011;44257;44.804;10.220;2023-04-24T06:58:35;10.77;;;7.32;;
58468;SDS011;44257;44.804;10.220;2023-04-24T07:01:01;10.35;;;7.20;;
58468;SDS011;44257;44.804;10.220;2023-04-24T07:03:26;10.55;;;6.63;;
58468;SDS011;44257;44.804;10.220;2023-04-24T07:05:52;9.52;;;6.90;;
58468;SDS011;44257;44.804;10.220;2023-04-24T07:08:19;10.90;;;6.68;;
58468;SDS011;44257;44.804;10.220;2023-04-24T07:10:47;9.40;;;6.50;;
58468;SDS011;44257;44.804;10.220;2023-04-24T07:13:13;8.70;;;6.50;;
58468;SDS011;44257;44.804;10.220;2023-04-24T07:15:39;9.73;;;7.13;;
58468;SDS011;44257;44.804;10.220;2023-04-24T07:18:06;11.82;;;7.43;;
58468;SDS011;44257;44.804;10.220;2023-04-24T07:20:32;9.70;;;6.53;;
58468;SDS011;44257;44.804;10.220;2023-04-24T07:22:59;9.65;;;6.85;;
58468;SDS011;44257;44.804;10.220;2023-04-24T07:25:24;11.00;;;7.82;;
58468;SDS011;44257;44.804;10.220;2023-04-24T07:27:50;10.65;;;8.02;;
58468;SDS011;44257;44.804;10.220;2023-04-24T07:30:16;11.95;;;8.52;;
58468;SDS011;44257;44.804;10.220;2023-04-24T07:32:42;12.13;;;8.80;;
58468;SDS011;44257;44.804;10.220;2023-04-24T07:35:08;12.77;;;8.98;;
58468;SDS011;44257;44.804;10.220;2023-04-24T07:37:35;11.68;;;8.77;;
58468;SDS011;44257;44.804;10.220;2023-04-24T07:40:01;12.20;;;9.40;;
58468;SDS011;44257;44.804;10.220;2023-04-24T07:42:27;13.05;;;9.20;;
58468;SDS011;44257;44.804;10.220;2023-04-24T07:44:55;14.90;;;9.45;;
58468;SDS011;44257;44.804;10.220;2023-04-24T07:47:21;12.07;;;9.27;;
58468;SDS011;44257;44.804;10.220;2023-04-24T07:49:47;12.23;;;9.18;;
58468;SDS011;44257;44.804;10.220;2023-04-24T07:52:13;13.48;;;9.55;;
58468;SDS011;44257;44.804;10.220;2023-04-24T07:54:38;15.05;;;9.13;;
58468;SDS011;44257;44.804;10.220;2023-04-24T07:57:04;11.30;;;8.50;;
58468;SDS011;44257;44.804;10.220;2023-04-24T07:59:31;11.38;;;7.78;;
58468;SDS011;44257;44.804;10.220;2023-04-24T08:01:57;10.60;;;6.88;;
58468;SDS011;44257;44.804;10.220;2023-04-24T08:04:23;9.60;;;6.00;;
58468;SDS011;44257;44.804;10.220;2023-04-24T08:06:50;8.85;;;6.68;;
58468;SDS011;44257;44.804;10.220;2023-04-24T08:09:16;11.90;;;7.45;;
58468;SDS011;44257;44.804;10.220;2023-04-24T08:11:42;9.23;;;5.90;;
58468;SDS011;44257;44.804;10.220;2023-04-24T08:14:08;7.97;;;5.60;;
58468;SDS011;44257;44.804;10.220;2023-04-24T08:16:34;10.02;;;6.05;;
58468;SDS011;44257;44.804;10.220;2023-04-24T08:19:00;9.25;;;5.45;;
58468;SDS011;44257;44.804;10.220;2023-04-24T08:21:26;7.38;;;4.88;;
58468;SDS011;44257;44.804;10.220;2023-04-24T08:23:52;7.60;;;5.25;;
58468;SDS011;44257;44.804;10.220;2023-04-24T08:26:18;9.35;;;5.22;;
58468;SDS011;44257;44.804;10.220;2023-04-24T08:28:44;6.97;;;5.13;;
58468;SDS011;44257;44.804;10.220;2023-04-24T08:31:09;7.85;;;5.55;;
58468;SDS011;44257;44.804;10.220;2023-04-24T08:33:35;13.38;;;6.80;;
58468;SDS011;44257;44.804;10.220;2023-04-24T08:36:02;9.07;;;6.95;;
58468;SDS011;44257;44.804;10.220;2023-04-24T08:38:31;9.23;;;6.57;;
58468;SDS011;44257;44.804;10.220;2023-04-24T08:41:00;8.93;;;5.57;;
58468;SDS011;44257;44.804;10.220;2023-04-24T08:43:27;9.75;;;5.68;;
58468;SDS011;44257;44.804;10.220;2023-04-24T08:45:54;10.63;;;5.60;;
58468;SDS011;44257;44.804;10.220;2023-04-24T08:48:22;10.88;;;6.15;;
58468;SDS011;44257;44.804;10.220;2023-04-24T08:50:48;10.65;;;5.88;;
58468;SDS011;44257;44.804;10.220;2023-04-24T08:53:16;12.75;;;6.45;;
58468;SDS011;44257;44.804;10.220;2023-04-24T08:55:43;9.95;;;6.10;;
58468;SDS011;44257;44.804;10.220;2023-04-24T08:58:12;13.85;;;7.25;;
58468;SDS011;44257;44.804;10.220;2023-04-24T09:00:39;8.55;;;5.53;;
58468;SDS011;44257;44.804;10.220;2023-04-24T09:03:12;8.85;;;6.20;;
58468;SDS011;44257;44.804;10.220;2023-04-24T09:05:46;9.68;;;5.82;;
58468;SDS011;44257;44.804;10.220;2023-04-24T09:08:13;7.10;;;5.82;;
58468;SDS011;44257;44.804;10.220;2023-04-24T09:10:39;8.70;;;5.32;;
58468;SDS011;44257;44.804;10.220;2023-04-24T09:13:06;8.32;;;4.90;;
58468;SDS011;44257;44.804;10.220;2023-04-24T09:15:34;8.48;;;6.07;;
58468;SDS011;44257;44.804;10.220;2023-04-24T09:18:00;8.25;;;5.63;;
58468;SDS011;44257;44.804;10.220;2023-04-24T09:20:26;7.63;;;4.80;;
58468;SDS011;44257;44.804;10.220;2023-04-24T09:22:56;7.18;;;5.03;;
58468;SDS011;44257;44.804;10.220;2023-04-24T09:25:23;7.78;;;4.53;;
58468;SDS011;44257;44.804;10.220;2023-04-24T09:28:02;6.40;;;4.40;;
58468;SDS011;44257;44.804;10.220;2023-04-24T09:30:29;6.10;;;4.22;;
58468;SDS011;44257;44.804;10.220;2023-04-24T09:33:11;6.32;;;4.60;;
58468;SDS011;44257;44.804;10.220;2023-04-24T09:35:40;6.80;;;4.13;;
58468;SDS011;44257;44.804;10.220;2023-04-24T09:38:07;7.78;;;4.20;;
58468;SDS011;44257;44.804;10.220;2023-04-24T09:40:34;5.78;;;3.50;;
58468;SDS011;44257;44.804;10.220;2023-04-24T09:43:00;4.32;;;3.42;;
58468;SDS011;44257;44.804;10.220;2023-04-24T09:45:37;5.68;;;3.83;;
58468;SDS011;44257;44.804;10.220;2023-04-24T09:48:04;6.18;;;3.72;;
58468;SDS011;44257;44.804;10.220;2023-04-24T09:50:32;7.22;;;4.10;;
58468;SDS011;44257;44.804;10.220;2023-04-24T09:53:01;6.10;;;3.97;;
58468;SDS011;44257;44.804;10.220;2023-04-24T09:55:29;8.25;;;4.57;;
58468;SDS011;44257;44.804;10.220;2023-04-24T09:57:59;6.07;;;4.60;;
58468;SDS011;44257;44.804;10.220;2023-04-24T10:00:27;9.05;;;4.43;;
58468;SDS011;44257;44.804;10.220;2023-04-24T10:02:54;6.22;;;4.70;;
58468;SDS011;44257;44.804;10.220;2023-04-24T10:05:26;6.15;;;3.80;;
58468;SDS011;44257;44.804;10.220;2023-04-24T10:07:57;5.55;;;4.68;;
58468;SDS011;44257;44.804;10.220;2023-04-24T10:10:25;6.93;;;4.40;;
58468;SDS011;44257;44.804;10.220;2023-04-24T10:12:51;6.93;;;4.90;;
58468;SDS011;44257;44.804;10.220;2023-04-24T10:15:17;7.93;;;5.03;;
58468;SDS011;44257;44.804;10.220;2023-04-24T10:17:47;6.90;;;5.15;;
58468;SDS011;44257;44.804;10.220;2023-04-24T10:20:24;7.30;;;5.32;;
58468;SDS011;44257;44.804;10.220;2023-04-24T10:22:52;6.60;;;4.88;;
58468;SDS011;44257;44.804;10.220;2023-04-24T10:25:23;7.95;;;4.90;;
58468;SDS011;44257;44.804;10.220;2023-04-24T10:27:50;6.50;;;4.88;;
58468;SDS011;44257;44.804;10.220;2023-04-24T10:30:18;6.28;;;4.72;;
58468;SDS011;44257;44.804;10.220;2023-04-24T10:32:45;7.30;;;4.03;;
58468;SDS011;44257;44.804;10.220;2023-04-24T10:35:12;4.75;;;3.88;;
58468;SDS011;44257;44.804;10.220;2023-04-24T10:37:48;5.82;;;4.50;;
58468;SDS011;44257;44.804;10.220;2023-04-24T10:40:19;5.75;;;3.83;;
58468;SDS011;44257;44.804;10.220;2023-04-24T10:43:07;6.18;;;3.83;;
58468;SDS011;44257;44.804;10.220;2023-04-24T10:45:36;6.22;;;4.07;;
58468;SDS011;44257;44.804;10.220;2023-04-24T10:48:04;7.90;;;5.40;;
58468;SDS011;44257;44.804;10.220;2023-04-24T10:50:52;5.43;;;3.90;;
58468;SDS011;44257;44.804;10.220;2023-04-24T10:53:19;5.82;;;4.03;;
58468;SDS011;44257;44.804;10.220;2023-04-24T10:55:48;6.13;;;4.43;;
58468;SDS011;44257;44.804;10.220;2023-04-24T11:01:24;7.95;;;7.15;;
58468;SDS011;44257;44.804;10.220;2023-04-24T11:03:55;7.85;;;6.20;;
58468;SDS011;44257;44.804;10.220;2023-04-24T11:06:41;8.00;;;5.32;;
58468;SDS011;44257;44.804;10.220;2023-04-24T11:09:09;6.50;;;4.75;;
58468;SDS011;44257;44.804;10.220;2023-04-24T11:11:37;6.85;;;5.15;;
58468;SDS011;44257;44.804;10.220;2023-04-24T11:14:09;11.68;;;5.80;;
58468;SDS011;44257;44.804;10.220;2023-04-24T11:16:42;8.02;;;5.78;;
58468;SDS011;44257;44.804;10.220;2023-04-24T11:27:19;9.02;;;7.03;;
58468;SDS011;44257;44.804;10.220;2023-04-24T11:35:03;9.95;;;6.97;;
58468;SDS011;44257;44.804;10.220;2023-04-24T11:40:05;8.77;;;6.97;;
58468;SDS011;44257;44.804;10.220;2023-04-24T11:42:42;9.40;;;7.57;;
58468;SDS011;44257;44.804;10.220;2023-04-24T11:45:11;10.40;;;7.47;;
58468;SDS011;44257;44.804;10.220;2023-04-24T11:47:38;8.90;;;6.85;;
58468;SDS011;44257;44.804;10.220;2023-04-24T11:50:05;11.35;;;8.02;;
58468;SDS011;44257;44.804;10.220;2023-04-24T11:52:33;9.02;;;7.43;;
58468;SDS011;44257;44.804;10.220;2023-04-24T11:55:03;7.60;;;6.53;;
58468;SDS011;44257;44.804;10.220;2023-04-24T11:57:29;10.20;;;7.22;;
58468;SDS011;44257;44.804;10.220;2023-04-24T12:00:04;10.68;;;7.93;;
58468;SDS011;44257;44.804;10.220;2023-04-24T12:02:37;11.32;;;7.10;;
58468;SDS011;44257;44.804;10.220;2023-04-24T12:05:03;10.57;;;7.00;;
58468;SDS011;44257;44.804;10.220;2023-04-24T12:07:29;10.30;;;6.45;;
58468;SDS011;44257;44.804;10.220;2023-04-24T12:09:56;8.23;;;5.93;;
58468;SDS011;44257;44.804;10.220;2023-04-24T12:12:24;9.23;;;6.18;;
58468;SDS011;44257;44.804;10.220;2023-04-24T12:14:57;7.00;;;5.47;;
58468;SDS011;44257;44.804;10.220;2023-04-24T12:17:30;7.05;;;5.85;;
58468;SDS011;44257;44.804;10.220;2023-04-24T12:19:57;7.90;;;5.28;;
58468;SDS011;44257;44.804;10.220;2023-04-24T12:25:11;8.15;;;5.22;;
58468;SDS011;44257;44.804;10.220;2023-04-24T12:27:37;9.60;;;5.75;;
58468;SDS011;44257;44.804;10.220;2023-04-24T12:30:04;7.82;;;5.70;;
58468;SDS011;44257;44.804;10.220;2023-04-24T12:32:31;7.30;;;4.63;;
58468;SDS011;44257;44.804;10.220;2023-04-24T12:34:58;7.28;;;4.82;;
58468;SDS011;44257;44.804;10.220;2023-04-24T12:37:24;6.93;;;3.90;;
58468;SDS011;44257;44.804;10.220;2023-04-24T12:40:07;5.78;;;3.75;;
58468;SDS011;44257;44.804;10.220;2023-04-24T12:42:43;5.65;;;4.22;;
58468;SDS011;44257;44.804;10.220;2023-04-24T12:45:18;4.63;;;3.83;;
58468;SDS011;44257;44.804;10.220;2023-04-24T12:47:45;5.45;;;3.85;;
58468;SDS011;44257;44.804;10.220;2023-04-24T12:50:12;4.97;;;3.70;;
58468;SDS011;44257;44.804;10.220;2023-04-24T12:52:40;4.97;;;3.65;;
58468;SDS011;44257;44.804;10.220;2023-04-24T12:55:06;3.58;;;2.72;;
58468;SDS011;44257;44.804;10.220;2023-04-24T12:57:33;3.67;;;2.67;;
58468;SDS011;44257;44.804;10.220;2023-04-24T13:00:00;3.45;;;2.35;;
58468;SDS011;44257;44.804;10.220;2023-04-24T13:02:27;4.88;;;2.50;;
58468;SDS011;44257;44.804;10.220;2023-04-24T13:04:57;3.95;;;2.50;;
58468;SDS011;44257;44.804;10.220;2023-04-24T13:07:24;4.38;;;2.90;;
58468;SDS011;44257;44.804;10.220;2023-04-24T13:09:50;5.00;;;3.53;;
58468;SDS011;44257;44.804;10.220;2023-04-24T13:12:17;4.57;;;3.50;;
58468;SDS011;44257;44.804;10.220;2023-04-24T13:14:43;4.85;;;3.78;;
58468;SDS011;44257;44.804;10.220;2023-04-24T13:17:10;4.95;;;3.25;;
58468;SDS011;44257;44.804;10.220;2023-04-24T13:19:38;6.88;;;3.13;;
58468;SDS011;44257;44.804;10.220;2023-04-24T13:22:05;4.40;;;3.00;;
58468;SDS011;44257;44.804;10.220;2023-04-24T13:24:35;5.32;;;2.65;;
58468;SDS011;44257;44.804;10.220;2023-04-24T13:27:01;3.40;;;2.70;;
58468;SDS011;44257;44.804;10.220;2023-04-24T13:29:27;4.57;;;3.10;;
58468;SDS011;44257;44.804;10.220;2023-04-24T13:31:54;5.15;;;3.05;;
58468;SDS011;44257;44.804;10.220;2023-04-24T13:34:20;3.13;;;2.55;;
58468;SDS011;44257;44.804;10.220;2023-04-24T13:36:47;6.38;;;2.70;;
58468;SDS011;44257;44.804;10.220;2023-04-24T13:39:14;3.90;;;3.00;;
58468;SDS011;44257;44.804;10.220;2023-04-24T13:41:41;3.72;;;2.50;;
58468;SDS011;44257;44.804;10.220;2023-04-24T13:44:06;4.63;;;2.53;;
58468;SDS011;44257;44.804;10.220;2023-04-24T13:46:32;5.35;;;2.90;;
58468;SDS011;44257;44.804;10.220;2023-04-24T13:48:58;4.85;;;2.75;;
58468;SDS011;44257;44.804;10.220;2023-04-24T13:51:27;3.80;;;2.67;;
58468;SDS011;44257;44.804;10.220;2023-04-24T13:53:53;4.00;;;2.65;;
58468;SDS011;44257;44.804;10.220;2023-04-24T13:56:20;3.47;;;2.03;;
58468;SDS011;44257;44.804;10.220;2023-04-24T13:58:47;4.78;;;2.25;;
58468;SDS011;44257;44.804;10.220;2023-04-24T14:01:13;4.25;;;2.55;;
58468;SDS011;44257;44.804;10.220;2023-04-24T14:03:40;3.95;;;1.90;;
58468;SDS011;44257;44.804;10.220;2023-04-24T14:06:06;4.20;;;3.10;;
58468;SDS011;44257;44.804;10.220;2023-04-24T14:08:34;3.03;;;2.40;;
58468;SDS011;44257;44.804;10.220;2023-04-24T14:10:59;3.83;;;2.72;;
58468;SDS011;44257;44.804;10.220;2023-04-24T14:13:25;3.63;;;2.70;;
58468;SDS011;44257;44.804;10.220;2023-04-24T14:15:52;5.70;;;2.70;;
58468;SDS011;44257;44.804;10.220;2023-04-24T14:18:18;3.75;;;2.75;;
58468;SDS011;44257;44.804;10.220;2023-04-24T14:20:44;4.57;;;2.50;;
58468;SDS011;44257;44.804;10.220;2023-04-24T14:23:10;4.63;;;2.75;;
58468;SDS011;44257;44.804;10.220;2023-04-24T14:25:36;4.82;;;3.03;;
58468;SDS011;44257;44.804;10.220;2023-04-24T14:28:02;5.57;;;2.58;;
58468;SDS011;44257;44.804;10.220;2023-04-24T14:30:27;4.38;;;2.20;;
58468;SDS011;44257;44.804;10.220;2023-04-24T14:32:53;3.35;;;2.20;;
58468;SDS011;44257;44.804;10.220;2023-04-24T14:35:19;4.30;;;2.17;;
58468;SDS011;44257;44.804;10.220;2023-04-24T14:37:45;4.80;;;2.88;;
58468;SDS011;44257;44.804;10.220;2023-04-24T14:40:11;4.97;;;2.75;;
58468;SDS011;44257;44.804;10.220;2023-04-24T14:42:37;3.63;;;2.15;;
58468;SDS011;44257;44.804;10.220;2023-04-24T14:45:02;3.65;;;2.50;;
58468;SDS011;44257;44.804;10.220;2023-04-24T14:47:28;3.15;;;2.10;;
58468;SDS011;44257;44.804;10.220;2023-04-24T14:49:54;2.83;;;1.90;;
58468;SDS011;44257;44.804;10.220;2023-04-24T14:52:20;2.83;;;1.73;;
58468;SDS011;44257;44.804;10.220;2023-04-24T14:54:46;2.50;;;1.58;;
58468;SDS011;44257;44.804;10.220;2023-04-24T14:57:12;3.35;;;2.08;;
58468;SDS011;44257;44.804;10.220;2023-04-24T14:59:38;3.10;;;1.67;;